Time;durP1;ratioP1;P1;durP2;ratioP2;P2;SDS_P1;SDS_P2;PMS_P1;PMS_P2;Temp;Humidity;BMP_temperature;BMP_pressure;BME280_temperature;BME280_humidity;BME280_pressure;Samples;Min_cycle;Max_cycle;Signal;HPM_P1;HPM_P2
2021/12/19 00:01:35;;;;;;;51.53;20.85;;;7.10;99.90;;;;;;5113174;28;20168;-50
2021/12/19 00:04:18;;;;;;;45.13;19.23;;;7.10;99.90;;;;;;5112746;28;20165;-49
2021/12/19 00:09:28;;;;;;;49.72;22.00;;;7.10;99.90;;;;;;5113318;28;20191;-49
2021/12/19 00:11:55;;;;;;;50.88;19.92;;;7.10;99.90;;;;;;5112864;28;20208;-49
2021/12/19 00:14:23;;;;;;;39.13;19.88;;;7.10;99.90;;;;;;5112767;28;20233;-49
2021/12/19 00:16:52;;;;;;;40.97;19.80;;;7.10;99.90;;;;;;5112931;28;20228;-49
2021/12/19 00:19:18;;;;;;;43.28;19.17;;;7.10;99.90;;;;;;5112648;28;20230;-49
2021/12/19 00:21:44;;;;;;;45.20;18.83;;;7.20;99.90;;;;;;5112583;28;20630;-49
2021/12/19 00:24:10;;;;;;;51.97;19.50;;;7.10;99.90;;;;;;5112822;28;20180;-49
2021/12/19 00:26:36;;;;;;;41.60;20.38;;;7.10;99.90;;;;;;5112540;28;20161;-49
2021/12/19 00:29:03;;;;;;;42.15;20.40;;;7.10;99.90;;;;;;5112454;28;20232;-49
2021/12/19 00:31:29;;;;;;;42.35;19.83;;;7.10;99.90;;;;;;5113031;28;20251;-49
2021/12/19 00:33:55;;;;;;;41.72;18.30;;;7.10;99.90;;;;;;5094429;28;20169;-49
2021/12/19 00:36:21;;;;;;;40.40;19.40;;;7.10;99.90;;;;;;5111762;28;20259;-50
2021/12/19 00:38:47;;;;;;;38.35;19.75;;;7.10;99.90;;;;;;5112382;28;20165;-49
2021/12/19 00:41:12;;;;;;;38.97;18.52;;;7.00;99.90;;;;;;5112372;28;20248;-49
2021/12/19 00:43:47;;;;;;;40.55;19.15;;;7.10;99.90;;;;;;5112423;28;20168;-48
2021/12/19 00:46:16;;;;;;;39.30;18.25;;;7.00;99.90;;;;;;5112617;28;20203;-49
2021/12/19 00:48:44;;;;;;;39.53;17.50;;;7.10;99.90;;;;;;5112229;28;20624;-49
2021/12/19 00:51:15;;;;;;;44.03;19.00;;;7.00;99.90;;;;;;5112250;28;20172;-49
2021/12/19 00:53:41;;;;;;;41.45;19.73;;;7.00;99.90;;;;;;5112459;28;20204;-49
2021/12/19 00:56:07;;;;;;;41.80;19.80;;;7.10;99.90;;;;;;5112139;28;20214;-49
2021/12/19 00:58:33;;;;;;;37.03;18.85;;;7.00;99.90;;;;;;5112238;28;20173;-49
2021/12/19 01:00:58;;;;;;;37.50;17.27;;;7.00;99.90;;;;;;5112454;28;20248;-49
2021/12/19 01:03:24;;;;;;;39.45;19.23;;;7.00;99.90;;;;;;5112205;28;20172;-48
2021/12/19 01:05:52;;;;;;;41.90;18.23;;;7.00;99.90;;;;;;5112050;28;20180;-49
2021/12/19 01:08:18;;;;;;;35.15;17.70;;;7.00;99.90;;;;;;5112136;28;20168;-49
2021/12/19 01:10:45;;;;;;;45.97;18.00;;;7.10;99.90;;;;;;5111968;28;20212;-49
2021/12/19 01:13:11;;;;;;;40.13;16.85;;;7.00;99.90;;;;;;5112042;28;20210;-49
2021/12/19 01:15:37;;;;;;;33.42;15.98;;;7.00;99.90;;;;;;5112032;28;20187;-49
2021/12/19 01:18:04;;;;;;;35.58;16.88;;;7.00;99.90;;;;;;5112027;28;20584;-49
2021/12/19 01:20:32;;;;;;;31.38;15.65;;;7.10;99.90;;;;;;5111972;28;20615;-49
2021/12/19 01:22:58;;;;;;;39.20;18.52;;;7.00;99.90;;;;;;5112190;28;20786;-49
2021/12/19 01:25:24;;;;;;;38.78;16.08;;;7.00;99.90;;;;;;5112197;28;20251;-49
2021/12/19 01:27:50;;;;;;;35.80;16.73;;;7.00;99.90;;;;;;5111893;28;20536;-49
2021/12/19 01:30:16;;;;;;;41.65;16.35;;;7.00;99.90;;;;;;5112118;28;20183;-49
2021/12/19 01:32:42;;;;;;;34.53;16.10;;;7.10;99.90;;;;;;5111938;28;20210;-49
2021/12/19 01:35:14;;;;;;;32.72;14.85;;;7.00;99.90;;;;;;5111839;28;20248;-49
2021/12/19 01:37:40;;;;;;;33.22;16.23;;;7.00;99.90;;;;;;5112017;28;20161;-49
2021/12/19 01:40:09;;;;;;;31.17;15.68;;;7.10;99.90;;;;;;5111745;28;20210;-48
2021/12/19 01:42:38;;;;;;;36.88;15.77;;;7.10;99.90;;;;;;5111763;28;20521;-49
2021/12/19 01:45:07;;;;;;;33.22;15.65;;;7.10;99.90;;;;;;5111782;28;20635;-49
2021/12/19 01:47:33;;;;;;;32.17;15.73;;;7.10;99.90;;;;;;5112629;28;20169;-49
2021/12/19 01:49:59;;;;;;;33.75;15.35;;;7.10;99.90;;;;;;5115763;28;20313;-49
2021/12/19 01:52:28;;;;;;;36.17;15.65;;;7.00;99.90;;;;;;5115319;28;20232;-49
2021/12/19 01:54:55;;;;;;;28.02;14.13;;;7.10;99.90;;;;;;5115512;28;20631;-49
2021/12/19 01:57:24;;;;;;;27.75;14.23;;;7.10;99.90;;;;;;5115232;28;20168;-48
2021/12/19 01:59:50;;;;;;;25.02;13.27;;;7.10;99.90;;;;;;5115209;28;20194;-49
2021/12/19 02:02:15;;;;;;;25.48;11.93;;;7.10;99.90;;;;;;5115137;28;20220;-50
2021/12/19 02:04:43;;;;;;;24.10;12.57;;;7.00;99.90;;;;;;5115176;28;20214;-49
2021/12/19 02:07:10;;;;;;;21.35;11.75;;;7.10;99.90;;;;;;5115087;28;20189;-49
2021/12/19 02:09:36;;;;;;;23.23;10.73;;;7.00;99.90;;;;;;5114775;28;20658;-50
2021/12/19 02:12:03;;;;;;;20.05;11.77;;;7.00;99.90;;;;;;5096571;28;20300;-49
2021/12/19 02:14:29;;;;;;;22.42;11.52;;;7.00;99.90;;;;;;5115529;28;20251;-49
2021/12/19 02:16:55;;;;;;;20.75;11.50;;;7.00;99.90;;;;;;5115192;28;20172;-50
2021/12/19 02:19:20;;;;;;;25.38;12.20;;;7.00;99.90;;;;;;5114855;28;20556;-49
2021/12/19 02:21:46;;;;;;;23.40;11.32;;;7.00;99.90;;;;;;5114631;28;20533;-49
2021/12/19 02:24:12;;;;;;;24.33;12.30;;;7.10;99.90;;;;;;5114785;28;20179;-49
2021/12/19 02:26:39;;;;;;;23.95;12.05;;;7.00;99.90;;;;;;5114963;28;20195;-49
2021/12/19 02:29:06;;;;;;;19.73;10.88;;;7.00;99.90;;;;;;5114892;28;20204;-49
2021/12/19 02:31:32;;;;;;;24.30;11.40;;;7.00;99.90;;;;;;5114649;28;20193;-48
2021/12/19 02:34:06;;;;;;;22.35;12.18;;;7.00;99.90;;;;;;5114810;28;20738;-49
2021/12/19 02:49:49;;;;;;;25.77;11.98;;;7.00;99.90;;;;;;5114514;28;20176;-48
2021/12/19 02:52:16;;;;;;;21.70;11.90;;;7.00;99.90;;;;;;5114397;28;20195;-49
2021/12/19 02:54:42;;;;;;;24.73;11.45;;;7.10;99.90;;;;;;5114120;28;20255;-49
2021/12/19 02:57:09;;;;;;;25.23;12.52;;;7.00;99.90;;;;;;5114348;28;20243;-49
2021/12/19 02:59:35;;;;;;;27.75;12.18;;;7.00;99.90;;;;;;5113555;28;20160;-50
2021/12/19 03:02:00;;;;;;;20.10;11.32;;;7.10;99.90;;;;;;5114005;28;20169;-49
2021/12/19 03:04:26;;;;;;;24.35;12.13;;;7.10;99.90;;;;;;5114327;28;20530;-49
2021/12/19 03:06:52;;;;;;;24.73;11.93;;;7.10;99.90;;;;;;5113893;28;20260;-50
2021/12/19 03:09:48;;;;;;;23.45;12.00;;;7.10;99.90;;;;;;5113946;28;20197;-50
2021/12/19 03:12:14;;;;;;;24.48;12.77;;;7.00;99.90;;;;;;5112322;28;20655;-49
2021/12/19 03:20:09;;;;;;;25.48;11.43;;;7.00;99.90;;;;;;5113987;28;20654;-49
2021/12/19 03:22:35;;;;;;;24.40;12.50;;;6.90;99.90;;;;;;5113525;28;20263;-49
2021/12/19 03:25:00;;;;;;;22.77;11.23;;;6.90;99.90;;;;;;5113571;28;20243;-49
2021/12/19 03:27:26;;;;;;;26.95;11.63;;;6.90;99.90;;;;;;5113817;28;20576;-48
2021/12/19 03:29:52;;;;;;;24.63;12.60;;;7.00;99.90;;;;;;5113482;28;20161;-49
2021/12/19 03:32:18;;;;;;;21.52;11.35;;;7.00;99.90;;;;;;5113320;28;20192;-49
2021/12/19 03:34:43;;;;;;;26.20;12.77;;;7.00;99.90;;;;;;5113346;28;20623;-49
2021/12/19 03:37:09;;;;;;;27.48;12.38;;;6.90;99.90;;;;;;5113349;28;20179;-49
2021/12/19 03:39:45;;;;;;;33.10;12.02;;;7.00;99.90;;;;;;5113234;28;20647;-49
2021/12/19 03:42:12;;;;;;;21.13;11.05;;;7.00;99.90;;;;;;5113510;28;20171;-49
2021/12/19 03:44:38;;;;;;;23.17;12.32;;;7.00;99.90;;;;;;5113138;28;20157;-50
2021/12/19 03:47:04;;;;;;;23.20;11.88;;;7.00;99.90;;;;;;5113398;28;20183;-49
2021/12/19 03:49:30;;;;;;;25.77;10.93;;;7.00;99.90;;;;;;5113052;28;20157;-49
2021/12/19 03:51:55;;;;;;;24.00;12.45;;;7.00;99.90;;;;;;5113240;28;20245;-49
2021/12/19 03:54:21;;;;;;;24.63;12.55;;;7.00;99.90;;;;;;5113060;28;20196;-49
2021/12/19 03:56:46;;;;;;;23.35;12.77;;;7.00;99.90;;;;;;5113241;28;20631;-49
2021/12/19 03:59:12;;;;;;;21.25;11.32;;;7.00;99.90;;;;;;5113185;28;20530;-49
2021/12/19 04:01:38;;;;;;;24.40;11.85;;;7.00;99.90;;;;;;5112975;28;20679;-49
2021/12/19 04:04:03;;;;;;;23.02;11.93;;;6.90;99.90;;;;;;5112816;28;20255;-49
2021/12/19 04:06:29;;;;;;;19.45;10.10;;;7.00;99.90;;;;;;5113386;28;20192;-49
2021/12/19 04:08:56;;;;;;;20.35;10.73;;;7.00;99.90;;;;;;5113070;28;20169;-48
2021/12/19 04:11:24;;;;;;;21.60;10.90;;;7.00;99.90;;;;;;5111883;28;20241;-50
2021/12/19 04:13:50;;;;;;;27.23;11.60;;;7.00;99.90;;;;;;5112554;28;20679;-50
2021/12/19 04:16:15;;;;;;;21.60;10.88;;;7.00;99.90;;;;;;5112706;28;20175;-49
2021/12/19 04:18:41;;;;;;;17.23;10.70;;;7.00;99.90;;;;;;5112718;28;20168;-49
2021/12/19 04:21:06;;;;;;;22.15;11.60;;;6.90;99.90;;;;;;5112891;28;20165;-49
2021/12/19 04:23:33;;;;;;;23.38;10.95;;;6.90;99.90;;;;;;5112658;28;20168;-49
2021/12/19 04:25:58;;;;;;;19.90;10.80;;;6.90;99.90;;;;;;5113061;28;20168;-49
2021/12/19 04:28:24;;;;;;;20.77;11.25;;;6.90;99.90;;;;;;5112495;28;20175;-50
2021/12/19 04:30:49;;;;;;;22.08;10.75;;;6.90;99.90;;;;;;5112477;28;20165;-49
2021/12/19 04:33:16;;;;;;;25.95;12.88;;;6.90;99.90;;;;;;5112445;28;20564;-50
2021/12/19 04:35:44;;;;;;;22.85;11.57;;;6.90;99.90;;;;;;5112665;28;20164;-50
2021/12/19 04:41:22;;;;;;;25.17;12.25;;;6.90;99.90;;;;;;5112896;28;20171;-50
2021/12/19 04:54:54;;;;;;;18.77;9.75;;;6.90;99.90;;;;;;5112542;28;20501;-50
2021/12/19 04:57:39;;;;;;;21.45;10.50;;;6.90;99.90;;;;;;5112063;28;20168;-49
2021/12/19 05:00:16;;;;;;;24.40;11.20;;;6.90;99.90;;;;;;5112168;28;20223;-50
2021/12/19 05:05:41;;;;;;;21.75;11.30;;;6.90;99.90;;;;;;5112141;28;20503;-50
2021/12/19 05:16:20;;;;;;;21.95;10.27;;;7.00;99.90;;;;;;5112420;28;20967;-49
2021/12/19 05:18:47;;;;;;;19.92;10.70;;;7.00;99.90;;;;;;5112250;28;20165;-50
2021/12/19 05:21:18;;;;;;;19.90;10.82;;;7.00;99.90;;;;;;5112726;28;20169;-49
2021/12/19 05:26:24;;;;;;;16.27;9.57;;;6.90;99.90;;;;;;5116067;28;20164;-49
2021/12/19 05:28:52;;;;;;;15.80;9.38;;;6.90;99.90;;;;;;5115823;28;20172;-50
2021/12/19 05:31:21;;;;;;;14.55;8.27;;;6.90;99.90;;;;;;5116071;28;20285;-49
2021/12/19 05:33:47;;;;;;;15.77;7.78;;;6.90;99.90;;;;;;5115645;28;20217;-50
2021/12/19 05:44:15;;;;;;;13.27;7.43;;;6.90;99.90;;;;;;5115843;28;20507;-50
2021/12/19 05:46:43;;;;;;;17.35;8.40;;;6.90;99.90;;;;;;5115504;28;20624;-50
2021/12/19 05:49:10;;;;;;;14.20;7.43;;;6.90;99.90;;;;;;5115701;28;20185;-50
2021/12/19 05:51:36;;;;;;;12.93;7.35;;;6.90;99.90;;;;;;5115453;28;20226;-50
2021/12/19 05:54:02;;;;;;;12.05;6.95;;;7.00;99.90;;;;;;5115197;28;20759;-49
2021/12/19 05:56:28;;;;;;;11.90;6.93;;;7.00;99.90;;;;;;5115900;28;20500;-49
2021/12/19 05:58:55;;;;;;;11.73;7.30;;;6.90;99.90;;;;;;5115319;28;20173;-50
2021/12/19 06:01:21;;;;;;;13.23;7.35;;;7.00;99.90;;;;;;5115162;28;20647;-50
2021/12/19 06:03:46;;;;;;;13.77;7.45;;;7.00;99.90;;;;;;5115077;28;20165;-50
2021/12/19 06:06:12;;;;;;;15.60;7.68;;;7.00;99.90;;;;;;5115115;28;20588;-50
2021/12/19 06:08:37;;;;;;;16.15;7.88;;;7.00;99.90;;;;;;5115113;28;20164;-50
2021/12/19 06:11:03;;;;;;;12.05;6.68;;;6.90;99.90;;;;;;5114950;28;20292;-50
2021/12/19 06:13:29;;;;;;;14.70;7.57;;;6.90;99.90;;;;;;5115180;28;20196;-49
2021/12/19 06:15:56;;;;;;;13.20;7.50;;;6.90;99.90;;;;;;5114712;28;20526;-49
2021/12/19 06:18:23;;;;;;;14.70;8.98;;;6.90;99.90;;;;;;5115199;28;20172;-49
2021/12/19 06:20:49;;;;;;;14.63;8.23;;;6.90;99.90;;;;;;5114833;28;20168;-49
2021/12/19 06:23:14;;;;;;;16.50;7.68;;;6.90;99.90;;;;;;5114664;28;20172;-48
2021/12/19 06:25:45;;;;;;;14.73;7.68;;;6.90;99.90;;;;;;5114783;28;20171;-49
2021/12/19 06:28:15;;;;;;;16.02;9.43;;;6.90;99.90;;;;;;5114954;28;20178;-49
2021/12/19 06:30:41;;;;;;;15.57;8.25;;;6.90;99.90;;;;;;5114655;28;20213;-50
2021/12/19 06:33:07;;;;;;;14.25;8.23;;;6.90;99.90;;;;;;5113355;28;20212;-50
2021/12/19 06:35:33;;;;;;;17.75;8.05;;;6.90;99.90;;;;;;5114507;28;20169;-51
2021/12/19 06:37:58;;;;;;;15.98;8.75;;;6.90;99.90;;;;;;5114907;28;20168;-51
2021/12/19 06:40:24;;;;;;;14.85;8.25;;;6.90;99.90;;;;;;5114450;28;20620;-51
2021/12/19 06:42:50;;;;;;;16.15;8.65;;;6.90;99.90;;;;;;5114524;28;20173;-51
2021/12/19 06:45:16;;;;;;;17.08;8.23;;;7.00;99.90;;;;;;5114378;28;20571;-50
2021/12/19 06:47:42;;;;;;;17.20;9.05;;;6.90;99.90;;;;;;5114456;28;20165;-51
2021/12/19 06:50:10;;;;;;;15.88;9.02;;;6.90;99.90;;;;;;5114270;28;20169;-51
2021/12/19 06:52:37;;;;;;;15.98;8.63;;;6.90;99.90;;;;;;5114490;28;20287;-50
2021/12/19 06:55:03;;;;;;;15.57;8.73;;;7.00;99.90;;;;;;5114218;28;20248;-50
2021/12/19 06:57:29;;;;;;;15.48;8.32;;;7.00;99.90;;;;;;5114418;28;20172;-51
2021/12/19 06:59:54;;;;;;;20.17;9.93;;;7.00;99.90;;;;;;5114258;28;20164;-50
2021/12/19 07:02:20;;;;;;;15.82;8.73;;;7.00;99.90;;;;;;5113949;28;20522;-51
2021/12/19 07:04:46;;;;;;;18.77;10.15;;;7.00;99.90;;;;;;5113968;28;20161;-50
2021/12/19 07:07:12;;;;;;;20.15;8.95;;;7.00;99.90;;;;;;5114245;28;20169;-51
2021/12/19 07:09:38;;;;;;;19.45;9.85;;;6.90;99.90;;;;;;5113923;28;20172;-50
2021/12/19 07:12:05;;;;;;;15.88;8.13;;;7.00;99.90;;;;;;5113712;28;20558;-50
2021/12/19 07:14:31;;;;;;;17.50;9.35;;;6.90;99.90;;;;;;5113648;28;20237;-51
2021/12/19 07:16:56;;;;;;;18.52;9.63;;;6.90;99.90;;;;;;5114040;28;20161;-51
2021/12/19 07:19:22;;;;;;;15.20;8.68;;;6.90;99.90;;;;;;5113786;28;20559;-51
2021/12/19 07:21:47;;;;;;;15.27;8.65;;;7.00;99.90;;;;;;5113656;28;20567;-51
2021/12/19 07:24:13;;;;;;;20.83;9.55;;;6.90;99.90;;;;;;5113700;28;20164;-51
2021/12/19 07:26:39;;;;;;;14.23;7.82;;;6.90;99.90;;;;;;5113609;28;20217;-50
2021/12/19 07:29:04;;;;;;;14.52;6.30;;;6.80;99.90;;;;;;5113743;28;20164;-51
2021/12/19 07:31:31;;;;;;;16.02;9.27;;;6.80;99.90;;;;;;5113775;28;20179;-51
2021/12/19 07:33:57;;;;;;;12.43;6.53;;;6.90;99.90;;;;;;5113653;28;20203;-51
2021/12/19 07:36:25;;;;;;;15.30;7.55;;;6.90;99.90;;;;;;5113616;28;20542;-51
2021/12/19 07:38:58;;;;;;;14.60;8.05;;;6.80;99.90;;;;;;5113421;28;20167;-51
2021/12/19 07:41:24;;;;;;;11.25;6.13;;;6.70;99.90;;;;;;5113530;28;20251;-51
2021/12/19 07:43:50;;;;;;;10.25;6.10;;;6.80;99.90;;;;;;5095047;28;20668;-51
2021/12/19 07:46:15;;;;;;;12.20;6.78;;;6.70;99.90;;;;;;5113174;28;20384;-51
2021/12/19 07:48:41;;;;;;;12.43;6.03;;;6.80;99.90;;;;;;5113213;28;20167;-51
2021/12/19 07:51:06;;;;;;;9.88;5.43;;;6.80;99.90;;;;;;5113184;28;20195;-51
2021/12/19 07:53:32;;;;;;;11.43;5.60;;;6.80;99.90;;;;;;5113058;28;20258;-51
2021/12/19 07:55:59;;;;;;;11.02;6.40;;;6.70;99.90;;;;;;5113432;28;20169;-51
2021/12/19 07:58:25;;;;;;;14.07;6.88;;;6.60;99.90;;;;;;5113540;28;20259;-51
2021/12/19 08:00:51;;;;;;;11.75;6.38;;;6.60;99.90;;;;;;5113143;28;20164;-50
2021/12/19 08:03:16;;;;;;;11.20;5.63;;;6.60;99.90;;;;;;5112925;28;20168;-51
2021/12/19 08:05:42;;;;;;;12.13;6.50;;;6.60;99.90;;;;;;5094535;27;20218;-49
2021/12/19 08:08:10;;;;;;;16.85;7.15;;;6.70;99.90;;;;;;5113000;28;20169;-51
2021/12/19 08:13:04;;;;;;;12.57;6.47;;;6.70;99.90;;;;;;5112700;28;20387;-51
2021/12/19 08:15:33;;;;;;;12.80;6.38;;;6.70;99.90;;;;;;5112996;28;20203;-51
2021/12/19 08:17:59;;;;;;;13.35;6.88;;;6.60;99.90;;;;;;5112989;28;20640;-50
2021/12/19 08:20:27;;;;;;;15.50;6.97;;;6.70;99.90;;;;;;5112854;28;20164;-51
2021/12/19 08:22:53;;;;;;;14.02;6.95;;;6.70;99.90;;;;;;5112619;28;20161;-50
2021/12/19 08:25:19;;;;;;;16.70;7.57;;;6.70;99.90;;;;;;5112398;28;20624;-50
2021/12/19 08:27:44;;;;;;;14.65;6.65;;;6.70;99.90;;;;;;5112518;28;20214;-51
2021/12/19 08:30:12;;;;;;;11.25;6.35;;;6.70;99.90;;;;;;5112493;28;20172;-50
2021/12/19 08:32:38;;;;;;;18.75;7.85;;;6.70;99.90;;;;;;5112528;28;20671;-51
2021/12/19 08:35:06;;;;;;;17.52;7.85;;;6.80;99.90;;;;;;5112565;28;20165;-51
2021/12/19 08:37:32;;;;;;;14.32;7.82;;;6.80;99.90;;;;;;5112365;28;20230;-51
2021/12/19 08:39:58;;;;;;;15.85;7.82;;;6.80;99.90;;;;;;5112945;28;20638;-51
2021/12/19 08:42:23;;;;;;;11.02;6.03;;;6.80;99.90;;;;;;5112335;28;20175;-51
2021/12/19 08:44:50;;;;;;;9.50;5.15;;;6.80;99.90;;;;;;5112313;28;20556;-50
2021/12/19 08:47:16;;;;;;;11.32;5.38;;;6.80;99.90;;;;;;5112246;28;20165;-50
2021/12/19 08:49:42;;;;;;;8.57;5.75;;;6.80;99.90;;;;;;5112086;28;20168;-51
2021/12/19 08:52:10;;;;;;;9.70;5.00;;;6.90;99.90;;;;;;5094284;28;20156;-50
2021/12/19 08:54:35;;;;;;;10.27;5.45;;;6.90;99.90;;;;;;5112352;28;20218;-51
2021/12/19 08:57:01;;;;;;;8.13;4.72;;;6.80;99.90;;;;;;5114370;28;20173;-49
2021/12/19 08:59:29;;;;;;;6.10;4.05;;;6.90;99.90;;;;;;5116586;28;20169;-50
2021/12/19 09:01:57;;;;;;;6.82;4.45;;;6.90;99.90;;;;;;5116933;28;20179;-51
2021/12/19 09:04:23;;;;;;;8.00;4.00;;;7.00;99.90;;;;;;5116648;28;20172;-51
2021/12/19 09:06:49;;;;;;;6.60;4.13;;;6.90;99.90;;;;;;5116404;28;20714;-51
2021/12/19 09:09:15;;;;;;;5.45;3.83;;;7.00;99.90;;;;;;5116825;28;20172;-51
2021/12/19 09:11:41;;;;;;;6.85;3.97;;;7.00;99.90;;;;;;5116095;28;20306;-51
2021/12/19 09:14:06;;;;;;;6.55;3.60;;;7.10;99.90;;;;;;5116461;28;20684;-51
2021/12/19 09:16:32;;;;;;;7.65;4.32;;;7.00;99.90;;;;;;5116175;27;20172;-51
2021/12/19 09:18:58;;;;;;;7.70;4.05;;;7.10;99.90;;;;;;5116429;28;20171;-51
2021/12/19 09:21:23;;;;;;;6.55;4.00;;;7.10;99.90;;;;;;5116065;28;20194;-51
2021/12/19 09:23:49;;;;;;;7.57;4.45;;;7.10;99.90;;;;;;5116013;28;20616;-51
2021/12/19 09:26:16;;;;;;;6.90;4.78;;;7.10;99.90;;;;;;5115945;28;20252;-51
2021/12/19 09:28:42;;;;;;;7.03;3.70;;;7.00;99.90;;;;;;5115911;28;20167;-51
2021/12/19 09:31:08;;;;;;;4.15;2.20;;;7.10;99.90;;;;;;5115868;28;20169;-51
2021/12/19 09:33:33;;;;;;;3.55;2.25;;;7.10;99.90;;;;;;5115730;28;20200;-51
2021/12/19 09:35:59;;;;;;;5.57;2.83;;;7.10;99.90;;;;;;5116039;28;20629;-51
2021/12/19 09:38:26;;;;;;;3.83;2.70;;;7.10;99.90;;;;;;5115384;28;20276;-51
2021/12/19 09:40:58;;;;;;;6.28;3.33;;;7.10;99.90;;;;;;5115608;28;20165;-50
2021/12/19 09:43:43;;;;;;;4.72;3.30;;;7.20;99.90;;;;;;5115737;28;20200;-50
2021/12/19 09:46:11;;;;;;;6.10;3.35;;;7.20;99.90;;;;;;5115450;28;20240;-50
2021/12/19 09:48:39;;;;;;;4.38;2.42;;;7.20;99.90;;;;;;5115500;28;20169;-51
2021/12/19 09:51:05;;;;;;;6.45;2.58;;;7.20;99.90;;;;;;5115263;28;20565;-51
2021/12/19 09:53:31;;;;;;;6.10;2.78;;;7.20;99.90;;;;;;5115274;28;20204;-51
2021/12/19 09:55:56;;;;;;;3.58;2.78;;;7.30;99.90;;;;;;5115601;28;20526;-50
2021/12/19 09:58:22;;;;;;;3.97;2.63;;;7.30;99.90;;;;;;5115260;28;20168;-50
2021/12/19 10:00:47;;;;;;;4.70;2.67;;;7.30;99.90;;;;;;5115084;28;20156;-51
2021/12/19 10:03:16;;;;;;;4.88;2.97;;;7.30;99.90;;;;;;5115113;28;20172;-50
2021/12/19 10:05:41;;;;;;;4.82;2.67;;;7.40;99.90;;;;;;5115302;28;20161;-51
2021/12/19 10:08:07;;;;;;;4.13;3.15;;;7.30;99.90;;;;;;5113974;28;20171;-51
2021/12/19 10:10:47;;;;;;;4.97;2.85;;;7.40;99.90;;;;;;5096478;28;20669;-51
2021/12/19 10:13:14;;;;;;;7.43;3.42;;;7.30;99.90;;;;;;5114805;28;20208;-51
2021/12/19 10:15:41;;;;;;;5.50;2.97;;;7.30;99.90;;;;;;5115208;28;20164;-50
2021/12/19 10:18:16;;;;;;;5.57;3.47;;;7.30;99.90;;;;;;5115155;28;20527;-50
2021/12/19 10:20:54;;;;;;;7.22;3.13;;;7.20;99.90;;;;;;5114823;28;20233;-51
2021/12/19 10:23:26;;;;;;;4.43;3.20;;;7.20;99.90;;;;;;5114649;28;20175;-50
2021/12/19 10:26:01;;;;;;;5.50;3.00;;;7.30;99.90;;;;;;5114617;28;20252;-50
2021/12/19 10:28:28;;;;;;;5.63;3.15;;;7.30;99.90;;;;;;5114792;28;20212;-51
2021/12/19 10:30:54;;;;;;;4.75;3.38;;;7.30;99.90;;;;;;5114856;28;20160;-50
2021/12/19 10:33:23;;;;;;;6.68;3.58;;;7.20;99.90;;;;;;5118068;27;20195;-49
2021/12/19 10:35:54;;;;;;;6.40;3.90;;;7.30;99.90;;;;;;5122324;27;20529;-50
2021/12/19 10:38:35;;;;;;;5.28;3.20;;;7.20;99.90;;;;;;5123107;27;20168;-49
2021/12/19 10:41:11;;;;;;;5.55;3.55;;;7.30;99.90;;;;;;5123095;27;20172;-51
2021/12/19 10:43:58;;;;;;;6.97;3.70;;;7.40;99.90;;;;;;5122683;27;20167;-51
2021/12/19 10:46:33;;;;;;;6.30;3.67;;;7.30;99.90;;;;;;5123812;27;20169;-50
2021/12/19 10:48:59;;;;;;;6.38;4.30;;;7.20;99.90;;;;;;5122815;27;20171;-49
2021/12/19 10:51:25;;;;;;;6.65;4.32;;;7.30;99.90;;;;;;5122588;27;20623;-49
2021/12/19 10:53:56;;;;;;;7.20;4.72;;;7.30;99.90;;;;;;5123813;27;20206;-50
2021/12/19 10:56:26;;;;;;;10.30;4.00;;;7.40;99.90;;;;;;5122904;27;20169;-49
2021/12/19 10:59:14;;;;;;;8.60;4.50;;;7.50;99.90;;;;;;5121726;27;20157;-49
2021/12/19 11:01:44;;;;;;;21.90;11.23;;;7.50;99.90;;;;;;5122828;27;20161;-50
2021/12/19 11:04:21;;;;;;;7.30;4.50;;;7.50;99.90;;;;;;5121603;27;20161;-50
2021/12/19 11:06:54;;;;;;;5.82;3.22;;;7.60;99.90;;;;;;5122056;27;20205;-50
2021/12/19 11:09:23;;;;;;;7.47;4.15;;;7.50;99.90;;;;;;5121070;27;20195;-50
2021/12/19 11:11:56;;;;;;;6.47;3.72;;;7.50;99.90;;;;;;5113248;28;20644;-51
2021/12/19 11:14:33;;;;;;;7.13;4.32;;;7.50;99.90;;;;;;5113758;28;20191;-51
2021/12/19 11:17:02;;;;;;;6.45;3.35;;;7.50;99.90;;;;;;5113921;28;20522;-50
2021/12/19 11:19:29;;;;;;;4.25;2.78;;;7.50;99.90;;;;;;5113368;28;20623;-50
2021/12/19 11:21:55;;;;;;;5.05;2.90;;;7.50;99.90;;;;;;5113480;28;20168;-50
2021/12/19 11:24:22;;;;;;;4.30;2.63;;;7.60;99.90;;;;;;5113406;28;20263;-50
2021/12/19 11:26:51;;;;;;;4.78;3.40;;;7.50;99.90;;;;;;5113235;28;20172;-49
2021/12/19 11:29:17;;;;;;;5.43;3.58;;;7.40;99.90;;;;;;5114108;27;20201;-50
2021/12/19 11:31:47;;;;;;;6.45;3.47;;;7.40;99.90;;;;;;5124552;27;20580;-50
2021/12/19 11:34:40;;;;;;;6.53;3.63;;;7.40;99.90;;;;;;5113436;28;20246;-50
2021/12/19 11:37:05;;;;;;;5.18;3.58;;;7.40;99.90;;;;;;5117010;27;20160;-50
2021/12/19 11:39:35;;;;;;;7.75;4.57;;;7.40;99.90;;;;;;5131751;27;20194;-51
2021/12/19 11:42:10;;;;;;;7.45;4.20;;;7.40;99.90;;;;;;5130116;27;20221;-50
2021/12/19 11:44:48;;;;;;;7.70;3.42;;;7.40;99.90;;;;;;5114116;27;20605;-50
2021/12/19 11:47:33;;;;;;;6.97;4.00;;;7.50;99.90;;;;;;5128687;27;20184;-49
2021/12/19 11:50:48;;;;;;;5.38;3.28;;;7.40;99.90;;;;;;5121682;27;20237;-50
2021/12/19 11:53:17;;;;;;;6.25;3.90;;;7.40;99.90;;;;;;5046296;28;20301;-49
2021/12/19 11:55:46;;;;;;;6.60;3.35;;;7.50;99.90;;;;;;5048411;28;20238;-49
2021/12/19 11:58:12;;;;;;;5.28;2.67;;;7.50;99.90;;;;;;5087797;27;20176;-49
2021/12/19 12:00:55;;;;;;;3.85;2.72;;;7.50;99.90;;;;;;5121385;27;20160;-50
2021/12/19 12:03:45;;;;;;;3.10;2.50;;;7.50;99.90;;;;;;5122271;27;20301;-48
2021/12/19 12:06:15;;;;;;;4.25;2.50;;;7.60;99.90;;;;;;5110979;27;20730;-49
2021/12/19 12:09:06;;;;;;;4.25;2.60;;;7.60;99.90;;;;;;5121464;27;20164;-49
2021/12/19 12:11:34;;;;;;;5.32;3.30;;;7.60;99.90;;;;;;5120539;27;20325;-50
2021/12/19 12:14:28;;;;;;;4.22;3.08;;;7.60;99.90;;;;;;5121662;27;20565;-49
2021/12/19 12:16:57;;;;;;;7.28;3.22;;;7.60;99.90;;;;;;5121111;27;20172;-50
2021/12/19 12:19:38;;;;;;;4.72;3.22;;;7.60;99.90;;;;;;5121018;27;20709;-51
2021/12/19 12:22:20;;;;;;;6.13;3.65;;;7.60;99.90;;;;;;5122439;27;20170;-49
2021/12/19 12:25:12;;;;;;;5.32;2.92;;;7.60;99.90;;;;;;5122446;27;20670;-50
2021/12/19 12:27:44;;;;;;;3.60;2.47;;;7.60;99.90;;;;;;5121329;27;20220;-50
2021/12/19 12:30:16;;;;;;;4.45;2.90;;;7.50;99.90;;;;;;5120407;27;20169;-49
2021/12/19 12:32:43;;;;;;;4.28;3.17;;;7.40;99.90;;;;;;5120197;27;20195;-50
2021/12/19 12:35:11;;;;;;;2.17;1.80;;;7.50;99.90;;;;;;5122270;27;20216;-51
2021/12/19 12:37:38;;;;;;;3.85;2.80;;;7.40;99.90;;;;;;5120853;27;20520;-51
2021/12/19 12:40:23;;;;;;;4.43;2.50;;;7.50;99.90;;;;;;5120576;27;20152;-51
2021/12/19 12:43:09;;;;;;;4.22;2.70;;;7.40;99.90;;;;;;5122080;27;20561;-51
2021/12/19 12:46:01;;;;;;;8.15;3.60;;;7.50;99.90;;;;;;5120844;27;20160;-49
2021/12/19 12:48:29;;;;;;;6.53;3.72;;;7.50;99.90;;;;;;5122804;28;20176;-50
2021/12/19 12:50:55;;;;;;;4.97;3.78;;;7.50;99.90;;;;;;5120510;27;20647;-50
2021/12/19 12:53:32;;;;;;;8.00;5.75;;;7.50;99.90;;;;;;5120967;27;20203;-51
2021/12/19 12:56:09;;;;;;;6.20;4.50;;;7.40;99.90;;;;;;5112385;28;20168;-51
2021/12/19 12:58:37;;;;;;;5.82;4.68;;;7.40;99.90;;;;;;5121639;27;20264;-49
2021/12/19 13:01:20;;;;;;;7.50;4.85;;;7.40;99.90;;;;;;5119252;27;20215;-50
2021/12/19 13:03:59;;;;;;;5.18;3.72;;;7.40;99.90;;;;;;5112143;28;20168;-51
2021/12/19 13:06:45;;;;;;;5.32;2.78;;;7.40;99.90;;;;;;5111623;28;20188;-51
2021/12/19 13:09:13;;;;;;;5.82;4.03;;;7.40;99.90;;;;;;5112395;28;20168;-51
2021/12/19 13:11:40;;;;;;;9.27;6.53;;;7.40;99.90;;;;;;5111957;28;20216;-51
2021/12/19 13:14:25;;;;;;;53.03;31.40;;;7.50;99.90;;;;;;5112068;28;20208;-50
2021/12/19 13:16:54;;;;;;;41.55;24.45;;;7.50;99.90;;;;;;5112018;28;20621;-51
2021/12/19 13:19:48;;;;;;;30.65;21.02;;;7.50;99.90;;;;;;5112241;28;20173;-51
2021/12/19 13:22:21;;;;;;;6.95;4.93;;;7.40;99.90;;;;;;5039385;28;20290;-51
2021/12/19 13:24:48;;;;;;;7.60;6.15;;;7.40;99.90;;;;;;5111887;28;20620;-51
2021/12/19 13:27:18;;;;;;;4.85;4.35;;;7.50;99.90;;;;;;5112152;28;20249;-50
2021/12/19 13:30:08;;;;;;;8.20;5.43;;;7.40;99.90;;;;;;5112139;28;20169;-50
2021/12/19 13:32:50;;;;;;;6.32;4.80;;;7.50;99.90;;;;;;5111327;28;20204;-51
2021/12/19 13:35:36;;;;;;;6.95;4.80;;;7.40;99.90;;;;;;5112119;28;20165;-51
2021/12/19 13:38:25;;;;;;;6.40;4.15;;;7.40;99.90;;;;;;5112077;28;20184;-51
2021/12/19 13:40:55;;;;;;;6.15;4.65;;;7.40;99.90;;;;;;5111918;28;20628;-51
2021/12/19 13:43:22;;;;;;;4.57;4.10;;;7.40;99.90;;;;;;5114277;28;20299;-51
2021/12/19 13:45:52;;;;;;;5.07;4.32;;;7.40;99.90;;;;;;5115643;28;20642;-51
2021/12/19 13:48:35;;;;;;;5.57;4.15;;;7.40;99.90;;;;;;5115493;28;20628;-51
2021/12/19 13:51:13;;;;;;;4.47;3.63;;;7.40;99.90;;;;;;5115410;28;20298;-51
2021/12/19 13:53:45;;;;;;;4.57;3.20;;;7.40;99.90;;;;;;5115478;28;20204;-52
2021/12/19 13:56:35;;;;;;;3.47;3.15;;;7.40;99.90;;;;;;5115564;28;20164;-51
2021/12/19 13:59:04;;;;;;;4.03;2.30;;;7.40;99.90;;;;;;5115131;28;20176;-50